Time;durP1;ratioP1;P1;durP2;ratioP2;P2;SDS_P1;SDS_P2;PMS_P1;PMS_P2;Temp;Humidity;BMP_temperature;BMP_pressure;BME280_temperature;BME280_humidity;BME280_pressure;Samples;Min_cycle;Max_cycle;Signal;HPM_P1;HPM_P2
2023/04/04 06:17:51;;;;;;;11.70;3.45;;;18.00;92.90;;;;;;5078666;27;20844;-61
2023/04/04 06:20:19;;;;;;;17.38;4.70;;;17.40;75.80;;;;;;5062934;28;20086;-62
2023/04/04 06:22:45;;;;;;;8.38;3.47;;;17.30;71.70;;;;;;5057020;28;20036;-61
2023/04/04 06:25:13;;;;;;;9.65;3.33;;;17.20;71.10;;;;;;5059200;28;20029;-61
2023/04/04 06:27:39;;;;;;;8.38;4.20;;;17.20;69.90;;;;;;5058809;28;20119;-61
2023/04/04 06:30:05;;;;;;;11.90;3.63;;;17.60;70.70;;;;;;5060739;28;20107;-62
2023/04/04 06:32:31;;;;;;;8.27;3.58;;;17.10;70.80;;;;;;5058976;28;20065;-61
2023/04/04 06:34:56;;;;;;;7.90;3.30;;;17.10;70.60;;;;;;5064107;28;20087;-60
2023/04/04 06:37:22;;;;;;;6.07;3.42;;;17.00;70.80;;;;;;5070548;28;20624;-61
2023/04/04 06:39:47;;;;;;;7.60;3.65;;;17.00;71.00;;;;;;5066820;22;20054;-87
2023/04/04 06:42:16;;;;;;;8.60;3.40;;;16.40;70.60;;;;;;5010745;28;20033;-88
2023/04/04 06:44:42;;;;;;;8.50;2.95;;;17.30;70.40;;;;;;5011301;28;20026;-88
2023/04/04 06:47:17;;;;;;;;;;;;;;;;;;;;;
2023/04/04 06:49:43;;;;;;;7.07;3.03;;;17.00;70.70;;;;;;5016311;28;20400;-90
2023/04/04 06:52:12;;;;;;;4.05;2.88;;;17.00;70.60;;;;;;5016128;28;20568;-89
2023/04/04 06:54:43;;;;;;;5.85;2.88;;;17.30;71.10;;;;;;5013223;28;20026;-90
2023/04/04 06:57:37;;;;;;;4.90;3.03;;;17.40;71.10;;;;;;5019824;28;20116;-88
2023/04/04 07:00:03;;;;;;;14.70;2.90;;;17.00;71.20;;;;;;5011429;28;20025;-88
2023/04/04 07:02:29;;;;;;;5.68;2.97;;;17.00;70.90;;;;;;5005799;28;20022;-88
2023/04/04 07:04:54;;;;;;;6.43;3.05;;;17.40;71.40;;;;;;5011554;28;20093;-88
2023/04/04 07:07:20;;;;;;;4.75;2.83;;;17.80;71.80;;;;;;5016126;28;20322;-89
2023/04/04 07:09:48;;;;;;;6.75;2.50;;;17.90;72.30;;;;;;5016712;28;20033;-88
2023/04/04 07:12:16;;;;;;;7.78;2.67;;;17.70;72.40;;;;;;5009245;28;20117;-88
2023/04/04 07:14:42;;;;;;;4.88;2.97;;;17.00;71.70;;;;;;5016270;28;20105;-87
2023/04/04 07:17:08;;;;;;;5.32;2.67;;;17.10;71.90;;;;;;5016306;28;20093;-88
2023/04/04 07:19:33;;;;;;;4.45;2.50;;;17.30;72.40;;;;;;5017142;28;20375;-89
2023/04/04 07:22:02;;;;;;;5.70;3.10;;;17.00;72.20;;;;;;5004808;28;20040;-90
2023/04/04 07:24:28;;;;;;;3.42;2.78;;;17.00;71.40;;;;;;5020554;28;20050;-89
2023/04/04 07:26:56;;;;;;;8.48;3.30;;;17.60;68.30;;;;;;5004764;28;20578;-90
2023/04/04 07:29:35;;;;;;;8.40;3.78;;;16.60;67.50;;;;;;4990417;28;20026;-90
2023/04/04 07:32:06;;;;;;;9.68;5.18;;;16.80;70.40;;;;;;4996808;28;20089;-89
2023/04/04 07:34:44;;;;;;;11.18;5.30;;;16.90;71.60;;;;;;5002554;28;20029;-89
2023/04/04 07:37:10;;;;;;;16.02;3.90;;;16.90;71.00;;;;;;4989480;28;20030;-88
2023/04/04 07:43:34;;;;;;;4.82;3.47;;;16.70;70.90;;;;;;4933759;28;20039;-87
2023/04/04 07:47:11;;;;;;;8.40;4.25;;;17.50;72.10;;;;;;4910285;29;20027;-88
2023/04/04 07:49:36;;;;;;;9.57;3.93;;;17.00;71.50;;;;;;4891221;29;20492;-89
2023/04/04 07:52:28;;;;;;;5.93;4.00;;;17.70;72.50;;;;;;4905901;28;20131;-88
2023/04/04 07:55:20;;;;;;;6.43;4.20;;;16.30;71.40;;;;;;4987572;28;20279;-88
2023/04/04 07:57:50;;;;;;;7.18;3.60;;;16.50;72.30;;;;;;4988583;28;20057;-89
2023/04/04 08:00:20;;;;;;;4.72;3.15;;;17.00;72.10;;;;;;4958421;28;20026;-91
2023/04/04 08:02:57;;;;;;;10.38;3.47;;;16.70;60.80;;;;;;4989533;28;20424;-90
2023/04/04 08:06:10;;;;;;;4.05;3.05;;;16.50;54.90;;;;;;4988750;28;20025;-86
2023/04/04 08:08:36;;;;;;;6.38;3.45;;;15.40;53.10;;;;;;4948502;29;20046;-87
2023/04/04 08:11:10;;;;;;;9.02;3.03;;;15.20;52.60;;;;;;4942266;28;20083;-86
2023/04/04 08:13:56;;;;;;;4.55;2.60;;;14.40;53.90;;;;;;4945295;28;20035;-87
2023/04/04 08:16:22;;;;;;;5.72;2.47;;;15.30;58.30;;;;;;4952615;28;20245;-87
2023/04/04 08:18:50;;;;;;;3.08;2.20;;;15.40;60.10;;;;;;4989247;28;20178;-88
2023/04/04 08:21:22;;;;;;;4.70;2.35;;;16.20;62.10;;;;;;4982805;28;20069;-88
2023/04/04 08:23:47;;;;;;;8.35;2.58;;;16.70;63.90;;;;;;4982239;28;20117;-87
2023/04/04 08:26:13;;;;;;;5.53;2.55;;;17.20;64.50;;;;;;4986143;28;20121;-87
2023/04/04 08:28:39;;;;;;;8.77;2.45;;;17.60;64.70;;;;;;4987674;28;20076;-87
2023/04/04 08:31:04;;;;;;;4.82;2.45;;;17.30;64.80;;;;;;4989758;28;20438;-88
2023/04/04 08:33:30;;;;;;;2.20;1.98;;;17.30;65.00;;;;;;4990329;28;20057;-87
2023/04/04 08:35:58;;;;;;;4.57;2.20;;;17.10;65.10;;;;;;4988659;28;20478;-88
2023/04/04 08:38:36;;;;;;;2.90;2.05;;;17.50;65.80;;;;;;4970258;28;20179;-89
2023/04/04 08:41:08;;;;;;;2.45;1.85;;;17.00;66.10;;;;;;4986473;28;20053;-89
2023/04/04 08:43:34;;;;;;;6.13;1.92;;;17.00;66.20;;;;;;4975385;28;20032;-87
2023/04/04 08:46:00;;;;;;;3.78;2.55;;;17.60;66.70;;;;;;5008248;28;20022;-86
2023/04/04 08:48:29;;;;;;;4.72;2.10;;;17.50;66.70;;;;;;5004338;28;20025;-86
2023/04/04 08:51:00;;;;;;;8.32;2.22;;;18.10;67.30;;;;;;5006536;28;20037;-88
2023/04/04 08:53:25;;;;;;;3.97;2.03;;;17.10;66.90;;;;;;5007087;28;20033;-88
2023/04/04 08:55:57;;;;;;;3.88;1.88;;;17.20;67.30;;;;;;5005688;28;20018;-88
2023/04/04 08:58:23;;;;;;;4.25;2.13;;;17.20;67.40;;;;;;5003643;28;20022;-88
2023/04/04 09:00:51;;;;;;;18.95;14.15;;;17.80;68.10;;;;;;4991792;28;20062;-87
2023/04/04 09:03:26;;;;;;;26.92;18.00;;;17.90;60.00;;;;;;5007117;28;20018;-87
2023/04/04 09:05:53;;;;;;;8.57;6.30;;;17.70;60.80;;;;;;4986073;28;20034;-87
2023/04/04 09:08:19;;;;;;;27.65;19.63;;;16.90;60.50;;;;;;4991390;28;20038;-87
2023/04/04 09:10:48;;;;;;;12.40;8.43;;;17.70;61.30;;;;;;4977011;28;20507;-85
2023/04/04 09:13:14;;;;;;;11.45;8.10;;;16.90;59.10;;;;;;4990241;28;20034;-85
2023/04/04 09:15:42;;;;;;;8.00;6.60;;;17.00;61.60;;;;;;5008669;28;20040;-85
2023/04/04 09:18:08;;;;;;;8.15;5.35;;;17.60;63.40;;;;;;4988515;28;20041;-86
2023/04/04 09:20:54;;;;;;;10.45;5.38;;;17.10;64.70;;;;;;5007609;28;20070;-85
2023/04/04 09:23:22;;;;;;;8.70;5.88;;;17.10;65.40;;;;;;5007967;28;20029;-86
2023/04/04 09:25:54;;;;;;;9.70;5.22;;;18.10;66.40;;;;;;4991036;28;20504;-87
2023/04/04 09:28:47;;;;;;;6.78;4.72;;;17.20;65.90;;;;;;5006363;28;20033;-87
2023/04/04 09:34:15;;;;;;;7.00;4.35;;;17.90;67.30;;;;;;4992251;28;20039;-87
2023/04/04 09:36:41;;;;;;;8.68;4.43;;;17.20;67.20;;;;;;5006766;28;20033;-86
2023/04/04 09:39:07;;;;;;;7.00;4.30;;;17.30;67.40;;;;;;5007126;28;20570;-87
2023/04/04 09:41:33;;;;;;;5.10;3.95;;;18.10;68.10;;;;;;5008519;28;20029;-88
2023/04/04 09:44:02;;;;;;;8.82;4.47;;;16.90;68.00;;;;;;4989641;28;20057;-87
2023/04/04 09:46:28;;;;;;;8.18;4.47;;;18.20;68.70;;;;;;4985197;28;20049;-87
2023/04/04 09:48:56;;;;;;;5.75;3.67;;;15.90;67.90;;;;;;4985589;28;20653;-87
2023/04/04 09:51:22;;;;;;;7.03;3.80;;;18.20;69.50;;;;;;5001520;28;20927;-86
2023/04/04 09:53:50;;;;;;;5.55;3.85;;;16.40;68.60;;;;;;5020861;28;20127;-87
2023/04/04 09:56:18;;;;;;;4.70;3.90;;;18.00;69.70;;;;;;5001274;28;20046;-87
2023/04/04 09:58:46;;;;;;;4.80;3.70;;;17.20;69.60;;;;;;5010883;28;20022;-87
2023/04/04 10:01:14;;;;;;;5.35;3.65;;;17.40;69.70;;;;;;5009356;28;20484;-87
2023/04/04 10:03:40;;;;;;;4.65;3.33;;;17.40;69.80;;;;;;5008935;28;20124;-86
2023/04/04 10:06:11;;;;;;;4.85;3.80;;;17.90;70.40;;;;;;4992066;28;20120;-87
2023/04/04 10:08:42;;;;;;;3.50;2.78;;;17.80;70.60;;;;;;5021907;28;20578;-87
2023/04/04 10:11:08;;;;;;;5.13;3.22;;;17.80;71.30;;;;;;5007219;28;20190;-86
2023/04/04 10:13:40;;;;;;;8.05;3.00;;;17.40;70.50;;;;;;5026842;28;20029;-86
2023/04/04 10:16:11;;;;;;;4.28;3.40;;;17.40;70.80;;;;;;5026559;28;20040;-87
2023/04/04 10:18:36;;;;;;;6.25;3.03;;;18.30;71.70;;;;;;5007991;28;20071;-87
2023/04/04 10:21:11;;;;;;;6.13;3.20;;;17.40;71.40;;;;;;5026729;28;20030;-86
2023/04/04 10:23:37;;;;;;;;;;;17.40;71.30;;;;;;5026671;28;20050;-87
2023/04/04 10:26:02;;;;;;;4.32;2.97;;;17.00;71.60;;;;;;5009158;28;20184;-87
2023/04/04 10:28:28;;;;;;;4.32;2.80;;;16.90;71.00;;;;;;5009612;28;20087;-86
2023/04/04 10:31:15;;;;;;;3.28;2.83;;;17.60;71.50;;;;;;5024763;28;20063;-86
2023/04/04 10:33:54;;;;;;;6.10;2.83;;;17.40;71.30;;;;;;5009630;28;20036;-86
2023/04/04 10:36:23;;;;;;;5.03;2.78;;;17.50;71.60;;;;;;5009595;28;20025;-86
2023/04/04 10:39:22;;;;;;;12.80;3.08;;;17.40;72.30;;;;;;5009053;28;20052;-86
2023/04/04 10:41:52;;;;;;;6.32;2.92;;;17.40;64.50;;;;;;5013773;28;20045;-86
2023/04/04 10:44:32;;;;;;;6.38;2.67;;;17.40;68.50;;;;;;4991735;28;20040;-85
2023/04/04 10:47:28;;;;;;;5.28;2.83;;;17.90;70.30;;;;;;5007300;28;20105;-87
2023/04/04 10:49:53;;;;;;;;;;;17.40;70.80;;;;;;5012139;28;20120;-86
2023/04/04 10:52:23;;;;;;;8.30;3.13;;;17.50;71.70;;;;;;5007155;28;20007;-86
2023/04/04 10:54:53;;;;;;;7.72;3.22;;;16.70;71.40;;;;;;5008173;28;20048;-86
2023/04/04 10:57:18;;;;;;;6.18;3.33;;;18.50;72.60;;;;;;5007317;28;20428;-86
2023/04/04 11:00:12;;;;;;;7.57;4.03;;;17.50;72.20;;;;;;4992616;28;20128;-86
2023/04/04 11:02:49;;;;;;;4.82;3.50;;;17.50;64.70;;;;;;5027424;28;20075;-86
2023/04/04 11:05:21;;;;;;;18.90;6.32;;;17.40;69.50;;;;;;5007864;28;20121;-86
2023/04/04 11:07:48;;;;;;;8.82;4.55;;;17.70;67.20;;;;;;5013010;28;20037;-86
2023/04/04 11:10:29;;;;;;;7.80;4.35;;;17.00;69.50;;;;;;5030535;28;20057;-86
2023/04/04 11:12:57;;;;;;;4.32;3.25;;;17.50;70.50;;;;;;5009909;28;20031;-85
2023/04/04 11:15:44;;;;;;;6.30;3.60;;;18.00;71.10;;;;;;5029854;28;20041;-87
2023/04/04 11:18:12;;;;;;;5.38;3.75;;;17.60;71.10;;;;;;5015096;28;20049;-87
2023/04/04 11:20:44;;;;;;;6.80;3.38;;;18.00;71.00;;;;;;5013191;28;20096;-86
2023/04/04 11:23:18;;;;;;;4.47;2.97;;;17.50;69.90;;;;;;4997382;28;20029;-86
2023/04/04 11:25:52;;;;;;;7.60;4.03;;;16.90;69.90;;;;;;5021951;28;20028;-87
2023/04/04 11:28:36;;;;;;;5.40;2.95;;;17.60;71.70;;;;;;5028089;28;20435;-86
2023/04/04 11:31:17;;;;;;;5.53;3.08;;;18.00;73.80;;;;;;5032396;28;20033;-86
2023/04/04 11:34:14;;;;;;;5.13;2.75;;;17.40;75.90;;;;;;5023821;28;20029;-87
2023/04/04 11:36:41;;;;;;;7.68;3.08;;;17.70;76.90;;;;;;5028243;28;20037;-89
2023/04/04 11:39:22;;;;;;;6.18;2.50;;;17.90;76.90;;;;;;5024482;28;20044;-89
2023/04/04 11:41:54;;;;;;;5.15;2.97;;;18.60;78.60;;;;;;5008738;28;20140;-88
2023/04/04 11:44:28;;;;;;;5.65;2.88;;;17.80;80.00;;;;;;5026202;28;20033;-88
2023/04/04 11:47:13;;;;;;;5.30;2.60;;;18.90;81.60;;;;;;5008372;28;20025;-90
2023/04/04 11:49:42;;;;;;;4.30;2.40;;;18.70;82.20;;;;;;5017748;28;20103;-89
2023/04/04 11:52:20;;;;;;;5.00;2.38;;;18.10;81.70;;;;;;5005349;28;20031;-89
2023/04/04 11:54:46;;;;;;;5.53;2.67;;;16.90;81.40;;;;;;5027514;28;20037;-89
2023/04/04 11:57:16;;;;;;;8.93;2.35;;;18.90;81.70;;;;;;5023718;28;20025;-88
2023/04/04 11:59:44;;;;;;;3.88;2.17;;;18.60;81.60;;;;;;5011370;28;20499;-88
2023/04/04 12:02:32;;;;;;;4.45;2.40;;;17.80;81.20;;;;;;5012471;28;20040;-88
2023/04/04 12:04:58;;;;;;;3.67;2.25;;;17.80;64.60;;;;;;5030077;28;20111;-88
2023/04/04 12:07:24;;;;;;;8.55;3.53;;;18.70;75.70;;;;;;5011535;28;20057;-89
2023/04/04 12:09:52;;;;;;;5.05;3.85;;;18.60;77.60;;;;;;5011580;28;20130;-89
2023/04/04 12:12:18;;;;;;;5.95;3.50;;;18.20;76.30;;;;;;5012140;28;20472;-88
2023/04/04 12:14:44;;;;;;;4.03;3.13;;;17.20;61.10;;;;;;5008228;28;20029;-88
2023/04/04 12:17:10;;;;;;;5.85;3.42;;;17.70;66.70;;;;;;5025116;28;20023;-88
2023/04/04 12:19:39;;;;;;;4.80;2.45;;;17.90;72.20;;;;;;5032390;28;20045;-87
2023/04/04 12:22:06;;;;;;;6.88;3.13;;;17.80;73.50;;;;;;5011190;28;20484;-87
2023/04/04 12:24:32;;;;;;;8.35;3.42;;;17.90;72.60;;;;;;5009526;28;20041;-87
2023/04/04 12:26:58;;;;;;;6.18;3.25;;;18.00;72.70;;;;;;5010042;28;20038;-87
2023/04/04 12:29:24;;;;;;;3.80;2.78;;;17.90;74.20;;;;;;5010397;28;20033;-86
2023/04/04 12:31:50;;;;;;;6.45;3.08;;;18.00;74.60;;;;;;5009912;28;20037;-87
2023/04/04 12:34:18;;;;;;;6.75;3.42;;;18.00;75.10;;;;;;5010659;28;20395;-86
2023/04/04 12:36:49;;;;;;;9.10;3.08;;;18.00;75.20;;;;;;5007178;28;20040;-86
2023/04/04 12:39:16;;;;;;;4.75;2.40;;;18.10;75.60;;;;;;5010061;28;20773;-86
2023/04/04 12:41:58;;;;;;;3.22;2.33;;;18.00;76.00;;;;;;5027347;28;20381;-86
2023/04/04 12:44:39;;;;;;;13.85;2.67;;;18.00;73.80;;;;;;5009964;28;20041;-88
2023/04/04 12:47:08;;;;;;;7.22;3.15;;;18.90;68.40;;;;;;5010174;28;20488;-87
2023/04/04 12:49:39;;;;;;;7.80;3.28;;;17.90;73.70;;;;;;5007925;28;20033;-86
2023/04/04 12:52:18;;;;;;;6.55;3.65;;;18.80;74.40;;;;;;5009710;28;20029;-88
2023/04/04 12:54:46;;;;;;;4.57;3.35;;;18.00;73.70;;;;;;5025965;28;20025;-88
2023/04/04 12:57:17;;;;;;;5.05;3.08;;;18.10;73.50;;;;;;5023449;28;20033;-88
2023/04/04 12:59:47;;;;;;;13.52;4.55;;;18.30;72.10;;;;;;5005044;28;20144;-86
2023/04/04 13:02:17;;;;;;;5.38;3.80;;;18.10;72.80;;;;;;4991162;28;20365;-87
2023/04/04 13:05:01;;;;;;;6.00;3.47;;;18.10;73.50;;;;;;5009404;28;20030;-86
2023/04/04 13:07:28;;;;;;;4.93;2.83;;;18.10;74.50;;;;;;5027193;28;20079;-86
2023/04/04 13:09:59;;;;;;;6.50;3.20;;;18.10;75.10;;;;;;5028936;28;20147;-87
2023/04/04 13:12:25;;;;;;;4.80;2.78;;;18.10;75.40;;;;;;5028477;28;20057;-86
2023/04/04 13:15:01;;;;;;;5.28;3.00;;;18.10;75.80;;;;;;4993972;28;20029;-85
2023/04/04 13:17:46;;;;;;;4.45;2.38;;;18.10;76.10;;;;;;5026696;28;20040;-86
2023/04/04 13:20:12;;;;;;;4.97;2.53;;;18.20;76.50;;;;;;5035192;28;20099;-85
2023/04/04 13:22:38;;;;;;;6.28;2.95;;;18.20;76.70;;;;;;5010041;28;20503;-85
2023/04/04 13:25:05;;;;;;;2.83;2.53;;;18.20;76.90;;;;;;5027000;28;20056;-85
2023/04/04 13:27:30;;;;;;;4.15;2.70;;;18.20;77.10;;;;;;5008729;28;20598;-86
2023/04/04 13:29:56;;;;;;;7.00;3.00;;;18.20;77.30;;;;;;4993368;28;20033;-86
2023/04/04 13:32:21;;;;;;;3.40;2.45;;;18.20;77.50;;;;;;5008680;28;20021;-87
2023/04/04 13:34:50;;;;;;;6.40;2.38;;;17.60;77.30;;;;;;5009084;28;20033;-87
2023/04/04 13:37:16;;;;;;;3.08;2.40;;;18.30;77.60;;;;;;5025117;28;20025;-87
2023/04/04 13:39:41;;;;;;;3.05;2.08;;;17.70;77.50;;;;;;5008657;28;20064;-87
2023/04/04 13:42:09;;;;;;;2.88;2.40;;;18.90;78.30;;;;;;5008599;28;20052;-88
2023/04/04 13:44:35;;;;;;;6.30;2.60;;;18.30;78.20;;;;;;5007801;28;20196;-88
2023/04/04 13:47:03;;;;;;;5.70;2.42;;;19.20;78.80;;;;;;5009136;28;20855;-89
2023/04/04 13:49:29;;;;;;;3.08;2.13;;;18.40;78.60;;;;;;5025133;28;20026;-87
2023/04/04 13:51:57;;;;;;;5.43;2.20;;;18.60;78.40;;;;;;5008982;28;20476;-88
2023/04/04 13:54:33;;;;;;;3.63;2.15;;;18.80;78.40;;;;;;5002448;28;20090;-89
2023/04/04 13:57:01;;;;;;;2.97;2.00;;;18.30;78.30;;;;;;5023258;28;20033;-89
2023/04/04 13:59:36;;;;;;;2.95;2.28;;;18.30;78.60;;;;;;5024469;28;20064;-88
2023/04/04 14:02:02;;;;;;;5.18;2.72;;;19.10;78.70;;;;;;5004931;28;20059;-88
2023/04/04 14:04:31;;;;;;;4.63;2.30;;;18.30;78.60;;;;;;5006960;28;20099;-88
2023/04/04 14:06:57;;;;;;;4.00;2.08;;;18.30;78.50;;;;;;5021104;28;20056;-87
2023/04/04 14:09:22;;;;;;;3.90;2.30;;;19.00;78.90;;;;;;5001446;28;20328;-88
2023/04/04 14:11:48;;;;;;;3.03;2.08;;;18.40;78.80;;;;;;5020688;28;20025;-87
2023/04/04 14:14:13;;;;;;;4.90;2.10;;;18.90;79.00;;;;;;5021776;28;20033;-87
2023/04/04 14:16:39;;;;;;;5.25;2.58;;;19.10;79.40;;;;;;5007876;28;20040;-88
2023/04/04 14:19:05;;;;;;;4.22;2.03;;;18.70;79.10;;;;;;5026340;28;20053;-90
2023/04/04 14:21:34;;;;;;;3.22;1.92;;;17.80;78.70;;;;;;5009163;28;20502;-89
2023/04/04 14:24:05;;;;;;;5.88;2.50;;;19.10;79.20;;;;;;5009207;28;20053;-89
2023/04/04 14:26:31;;;;;;;5.28;2.90;;;18.40;65.30;;;;;;5024648;28;20034;-87
2023/04/04 14:28:57;;;;;;;4.35;3.28;;;17.80;74.10;;;;;;5021128;28;20025;-86
2023/04/04 14:31:25;;;;;;;5.93;3.63;;;18.40;74.90;;;;;;5025241;28;20668;-86
2023/04/04 14:33:53;;;;;;;6.22;4.03;;;18.40;71.90;;;;;;5022662;28;20029;-88
2023/04/04 14:36:20;;;;;;;9.15;3.80;;;18.20;72.40;;;;;;5007279;28;20063;-86
2023/04/04 14:38:46;;;;;;;5.00;3.70;;;18.50;72.80;;;;;;5008077;28;20026;-86
2023/04/04 14:41:12;;;;;;;6.38;3.70;;;18.50;73.60;;;;;;4992414;28;20026;-85
2023/04/04 14:43:48;;;;;;;5.95;2.92;;;18.70;74.40;;;;;;4994144;28;20053;-86
2023/04/04 14:46:13;;;;;;;6.90;3.17;;;18.90;75.10;;;;;;4994808;28;20492;-87
2023/04/04 14:48:39;;;;;;;5.47;2.88;;;19.10;75.90;;;;;;5030560;28;20045;-87
2023/04/04 14:51:05;;;;;;;4.93;3.25;;;19.50;76.60;;;;;;5012702;28;20445;-88
2023/04/04 14:53:33;;;;;;;10.07;2.90;;;18.90;76.80;;;;;;5025544;28;20029;-86
2023/04/04 14:55:59;;;;;;;5.70;2.85;;;19.30;78.30;;;;;;5026860;28;20075;-87
2023/04/04 14:58:24;;;;;;;13.65;2.95;;;19.40;78.40;;;;;;5012567;28;20151;-86
2023/04/04 15:00:50;;;;;;;7.03;3.20;;;18.30;78.50;;;;;;5008737;28;20026;-87
2023/04/04 15:03:16;;;;;;;6.68;2.38;;;18.70;79.40;;;;;;5007435;28;20097;-87
2023/04/04 15:05:41;;;;;;;7.00;2.78;;;17.70;78.70;;;;;;5030104;28;20029;-88
2023/04/04 15:08:07;;;;;;;4.85;2.83;;;18.20;79.30;;;;;;5030173;28;20022;-88
2023/04/04 15:10:35;;;;;;;3.72;2.40;;;19.10;80.00;;;;;;5029338;28;20025;-88
2023/04/04 15:13:01;;;;;;;4.53;2.47;;;18.30;79.80;;;;;;5012239;28;20029;-88
2023/04/04 15:15:27;;;;;;;7.03;2.83;;;19.10;80.50;;;;;;5009528;28;20490;-88
2023/04/04 15:18:00;;;;;;;7.35;2.55;;;18.30;80.30;;;;;;5008620;28;20029;-88
2023/04/04 15:20:25;;;;;;;7.35;2.58;;;17.70;80.10;;;;;;5006389;28;20025;-90
2023/04/04 15:23:09;;;;;;;11.40;3.17;;;18.40;81.00;;;;;;5005219;28;20028;-93
2023/04/04 15:25:47;;;;;;;;;;;;;;;;;;;;;
2023/04/04 15:28:13;;;;;;;7.57;3.17;;;18.80;79.00;;;;;;5024951;28;20037;-92
2023/04/04 15:30:44;;;;;;;12.90;5.50;;;19.40;79.20;;;;;;5007185;28;20044;-92
2023/04/04 15:33:15;;;;;;;15.75;5.38;;;18.30;77.30;;;;;;5022246;28;20033;-92
2023/04/04 15:35:45;;;;;;;14.55;4.30;;;18.80;76.30;;;;;;5008242;28;20025;-91
2023/04/04 15:38:16;;;;;;;9.27;3.95;;;18.30;74.80;;;;;;5007012;28;20083;-93
2023/04/04 15:40:48;;;;;;;11.70;3.63;;;18.40;75.40;;;;;;5006420;28;20030;-92
2023/04/04 15:43:13;;;;;;;13.02;3.42;;;18.40;74.80;;;;;;5027820;28;20017;-89
2023/04/04 15:45:39;;;;;;;9.05;3.75;;;18.50;75.90;;;;;;5031098;28;20087;-92
2023/04/04 15:48:07;;;;;;;5.78;2.92;;;18.40;73.90;;;;;;5008248;28;20571;-92
2023/04/04 15:50:32;;;;;;;8.77;4.00;;;18.50;74.50;;;;;;5023799;28;20029;-90
2023/04/04 15:52:58;;;;;;;18.38;3.92;;;18.90;74.50;;;;;;5007467;28;20052;-91
2023/04/04 15:55:32;;;;;;;20.48;5.18;;;18.50;73.50;;;;;;5009845;28;20439;-91
2023/04/04 15:58:02;;;;;;;14.30;7.13;;;18.50;72.70;;;;;;5027373;28;20040;-91
2023/04/04 16:00:32;;;;;;;9.50;6.03;;;19.50;73.00;;;;;;5004740;28;20018;-90
2023/04/04 16:03:01;;;;;;;12.60;5.72;;;18.30;72.10;;;;;;5005111;28;20480;-90
2023/04/04 16:05:47;;;;;;;10.88;5.43;;;19.00;70.30;;;;;;4989052;28;20026;-92
2023/04/04 16:08:15;;;;;;;21.92;11.93;;;17.60;70.70;;;;;;5025991;28;20105;-90
2023/04/04 16:10:44;;;;;;;16.15;7.03;;;18.30;69.10;;;;;;5018072;28;20079;-90
2023/04/04 16:13:23;;;;;;;11.93;6.90;;;18.40;70.70;;;;;;5004524;28;20017;-91
2023/04/04 16:15:51;;;;;;;39.40;7.73;;;18.70;71.50;;;;;;5022294;28;20018;-91
2023/04/04 16:18:19;;;;;;;14.35;7.18;;;18.30;72.20;;;;;;5002194;28;20116;-89
2023/04/04 16:21:02;;;;;;;18.73;6.45;;;18.30;72.20;;;;;;5021413;28;20026;-90
2023/04/04 16:23:28;;;;;;;9.38;6.00;;;18.90;73.30;;;;;;5024037;28;20025;-91
2023/04/04 16:28:44;;;;;;;4.93;2.33;;;18.60;86.40;;;;;;5119068;27;20879;-51
2023/04/04 16:31:10;;;;;;;4.80;2.25;;;19.20;90.80;;;;;;5117142;28;20027;-51
2023/04/04 16:33:35;;;;;;;5.18;2.60;;;19.50;90.30;;;;;;5120154;28;20023;-49
2023/04/04 16:36:01;;;;;;;5.70;2.50;;;19.80;89.40;;;;;;5123333;28;20385;-51
2023/04/04 16:38:26;;;;;;;4.57;2.40;;;19.90;88.30;;;;;;5113282;28;20019;-51
2023/04/04 16:40:52;;;;;;;3.35;2.30;;;20.10;87.30;;;;;;5099108;28;20323;-52
2023/04/04 16:43:17;;;;;;;3.72;2.70;;;20.30;86.50;;;;;;5097191;28;20032;-50
2023/04/04 16:45:43;;;;;;;4.40;2.35;;;20.40;85.80;;;;;;5099429;28;20088;-51
2023/04/04 16:48:08;;;;;;;7.22;2.55;;;20.50;85.80;;;;;;5107097;28;20027;-51
2023/04/04 16:50:34;;;;;;;5.15;2.83;;;20.50;84.60;;;;;;5117135;28;20012;-50
2023/04/04 16:53:00;;;;;;;3.65;2.58;;;20.50;84.30;;;;;;5120729;28;20046;-51
2023/04/04 16:55:26;;;;;;;5.32;2.28;;;20.60;84.30;;;;;;5118729;28;20034;-52
2023/04/04 16:57:55;;;;;;;6.55;2.83;;;20.60;84.20;;;;;;5104636;28;20267;-52
2023/04/04 17:00:21;;;;;;;4.70;2.50;;;20.60;84.20;;;;;;5110541;28;20061;-51
2023/04/04 17:02:47;;;;;;;6.47;3.00;;;20.60;84.20;;;;;;5109921;28;20087;-50
2023/04/04 17:05:13;;;;;;;8.38;2.65;;;20.50;84.10;;;;;;5082564;28;20027;-52
2023/04/04 17:07:38;;;;;;;5.80;2.63;;;20.50;84.40;;;;;;5098367;28;20035;-52
2023/04/04 17:10:05;;;;;;;6.43;3.25;;;20.50;84.60;;;;;;5096642;28;20115;-50
2023/04/04 17:12:30;;;;;;;6.10;2.90;;;20.50;84.70;;;;;;5102265;28;20028;-52
2023/04/04 17:14:56;;;;;;;7.32;3.00;;;20.50;84.70;;;;;;5102153;28;20026;-49
2023/04/04 17:17:22;;;;;;;7.68;3.00;;;20.50;84.90;;;;;;5098409;28;20099;-51
2023/04/04 17:19:47;;;;;;;8.80;3.85;;;20.50;85.00;;;;;;5096123;28;20528;-50
2023/04/04 17:22:14;;;;;;;3.60;2.72;;;20.50;85.20;;;;;;5107320;28;20031;-51
2023/04/04 17:24:40;;;;;;;8.35;2.92;;;20.50;85.50;;;;;;5097771;28;20028;-51
2023/04/04 17:27:06;;;;;;;6.97;3.20;;;20.50;85.70;;;;;;5106846;28;20405;-50
2023/04/04 17:29:32;;;;;;;4.97;3.22;;;20.50;85.90;;;;;;5108064;28;20476;-52
2023/04/04 17:31:58;;;;;;;4.90;2.95;;;20.20;85.90;;;;;;5105526;28;20032;-50
2023/04/04 17:34:23;;;;;;;6.00;3.13;;;20.50;86.30;;;;;;5111785;28;20122;-51
2023/04/04 17:36:50;;;;;;;4.35;2.88;;;20.50;86.40;;;;;;5115371;28;20114;-52
2023/04/04 17:39:16;;;;;;;3.58;2.78;;;20.40;86.50;;;;;;5105779;28;20401;-51
2023/04/04 17:41:42;;;;;;;8.05;3.50;;;20.40;86.70;;;;;;5089772;28;20028;-49
2023/04/04 17:44:08;;;;;;;4.32;2.53;;;20.40;86.90;;;;;;5094416;28;20030;-52
2023/04/04 17:46:33;;;;;;;7.97;3.67;;;20.40;87.10;;;;;;5092545;28;20028;-51
2023/04/04 17:48:59;;;;;;;4.32;2.78;;;20.60;87.30;;;;;;5092772;28;20026;-51
2023/04/04 17:51:26;;;;;;;3.70;2.72;;;20.30;87.30;;;;;;5087817;28;20483;-50
2023/04/04 17:53:51;;;;;;;6.50;3.00;;;20.30;87.50;;;;;;5089562;28;20089;-52
2023/04/04 17:56:17;;;;;;;5.63;3.08;;;20.30;87.50;;;;;;5089324;28;20425;-51
2023/04/04 17:58:42;;;;;;;6.72;3.10;;;20.30;87.70;;;;;;5087325;28;20016;-50
2023/04/04 18:01:08;;;;;;;8.82;3.85;;;20.30;88.30;;;;;;5089252;28;20032;-52
2023/04/04 18:03:33;;;;;;;12.07;3.75;;;20.30;89.50;;;;;;5102504;28;20048;-51
2023/04/04 18:06:00;;;;;;;8.68;3.67;;;20.30;90.40;;;;;;5099350;28;20105;-51
2023/04/04 18:08:25;;;;;;;13.40;4.22;;;20.30;90.40;;;;;;5096979;28;20016;-52
2023/04/04 18:10:51;;;;;;;8.15;3.70;;;20.30;90.60;;;;;;5069433;28;20039;-51
2023/04/04 18:13:17;;;;;;;6.47;3.60;;;20.30;90.70;;;;;;5073821;28;20043;-50
2023/04/04 18:15:42;;;;;;;11.02;4.45;;;20.40;90.80;;;;;;5088079;28;20093;-50
2023/04/04 18:18:08;;;;;;;5.78;3.65;;;20.30;90.70;;;;;;5071722;28;20036;-52
2023/04/04 18:20:36;;;;;;;6.38;3.70;;;20.30;90.50;;;;;;5069566;28;20456;-52
2023/04/04 18:23:04;;;;;;;10.40;4.00;;;20.30;90.50;;;;;;5068567;28;20042;-53
2023/04/04 18:25:31;;;;;;;8.15;4.22;;;20.30;90.40;;;;;;5083540;28;20038;-53
2023/04/04 18:27:56;;;;;;;8.23;3.83;;;20.30;90.40;;;;;;5069790;28;20040;-52
2023/04/04 18:30:22;;;;;;;6.80;4.25;;;20.30;90.40;;;;;;5071865;28;20020;-53
2023/04/04 18:32:47;;;;;;;8.13;4.72;;;20.20;90.30;;;;;;5067292;28;20023;-53
2023/04/04 18:35:13;;;;;;;6.53;4.43;;;20.20;90.70;;;;;;5073149;28;20063;-52
2023/04/04 18:37:39;;;;;;;5.70;3.28;;;20.20;90.60;;;;;;5068384;28;20032;-52
2023/04/04 18:40:06;;;;;;;5.65;3.78;;;20.20;90.50;;;;;;5069286;28;20078;-51
2023/04/04 18:42:32;;;;;;;11.15;3.92;;;20.20;90.40;;;;;;5075106;28;20038;-52
2023/04/04 18:44:58;;;;;;;12.85;4.72;;;20.20;90.40;;;;;;5074541;28;20073;-51
2023/04/04 18:47:24;;;;;;;11.65;3.88;;;20.20;90.40;;;;;;5078257;28;20486;-52
2023/04/04 18:49:50;;;;;;;8.50;4.13;;;20.20;90.40;;;;;;5069029;28;20031;-54
2023/04/04 18:52:15;;;;;;;8.07;3.80;;;20.10;90.40;;;;;;5070797;28;20028;-51
2023/04/04 18:54:41;;;;;;;5.38;4.15;;;20.10;90.40;;;;;;5069756;28;20024;-53
2023/04/04 18:57:06;;;;;;;10.18;4.50;;;20.10;90.40;;;;;;5072451;28;20700;-51
2023/04/04 18:59:32;;;;;;;10.27;3.90;;;20.10;90.70;;;;;;5068420;28;20171;-52
2023/04/04 19:01:59;;;;;;;6.53;3.90;;;20.10;90.40;;;;;;5076133;28;20083;-52
2023/04/04 19:04:25;;;;;;;7.13;3.67;;;20.10;90.70;;;;;;5067303;28;20024;-53
2023/04/04 19:06:51;;;;;;;8.02;4.45;;;20.00;90.50;;;;;;5052701;28;20032;-53
2023/04/04 19:09:18;;;;;;;14.85;5.00;;;20.00;90.40;;;;;;5069448;28;20191;-52
2023/04/04 19:11:44;;;;;;;9.85;5.18;;;20.00;90.40;;;;;;5076091;28;20116;-52
2023/04/04 19:14:10;;;;;;;14.35;5.10;;;20.00;90.30;;;;;;5070167;28;20099;-52
2023/04/04 19:16:36;;;;;;;8.48;4.80;;;20.00;90.30;;;;;;5071258;28;20024;-53
2023/04/04 19:19:02;;;;;;;5.40;4.03;;;20.00;90.40;;;;;;5076100;28;20024;-53
2023/04/04 19:21:27;;;;;;;7.15;4.40;;;19.90;90.50;;;;;;5072667;28;20020;-52
2023/04/04 19:23:53;;;;;;;10.65;4.10;;;20.00;90.50;;;;;;5066013;28;20021;-52
2023/04/04 19:26:18;;;;;;;7.25;4.20;;;19.90;90.60;;;;;;5076843;28;20028;-53